sensor_id;sensor_type;location;lat;lon;timestamp;temperature;humidity
10443;DHT22;5269;51.146;16.986;2022-11-15T00:00:00;3.60;99.90
10443;DHT22;5269;51.146;16.986;2022-11-15T00:02:27;3.50;99.90
10443;DHT22;5269;51.146;16.986;2022-11-15T00:04:55;3.40;99.90
10443;DHT22;5269;51.146;16.986;2022-11-15T00:07:22;3.50;99.90
10443;DHT22;5269;51.146;16.986;2022-11-15T00:09:49;3.50;99.90
10443;DHT22;5269;51.146;16.986;2022-11-15T00:12:16;3.50;99.90
10443;DHT22;5269;51.146;16.986;2022-11-15T00:14:42;3.50;99.90
10443;DHT22;5269;51.146;16.986;2022-11-15T00:17:09;3.50;99.90
10443;DHT22;5269;51.146;16.986;2022-11-15T00:19:36;3.70;99.90
10443;DHT22;5269;51.146;16.986;2022-11-15T00:22:05;3.60;99.90
10443;DHT22;5269;51.146;16.986;2022-11-15T00:24:34;3.50;99.90
10443;DHT22;5269;51.146;16.986;2022-11-15T00:27:00;3.60;99.90
10443;DHT22;5269;51.146;16.986;2022-11-15T00:29:27;3.50;99.90
10443;DHT22;5269;51.146;16.986;2022-11-15T00:31:54;3.50;99.90
10443;DHT22;5269;51.146;16.986;2022-11-15T00:34:21;3.40;99.90
10443;DHT22;5269;51.146;16.986;2022-11-15T00:36:48;3.40;99.90
10443;DHT22;5269;51.146;16.986;2022-11-15T00:39:16;3.40;99.90
10443;DHT22;5269;51.146;16.986;2022-11-15T00:41:43;3.30;99.90
10443;DHT22;5269;51.146;16.986;2022-11-15T00:44:10;3.30;99.90
10443;DHT22;5269;51.146;16.986;2022-11-15T00:46:40;3.30;99.90
10443;DHT22;5269;51.146;16.986;2022-11-15T00:49:08;3.30;99.90
10443;DHT22;5269;51.146;16.986;2022-11-15T00:51:38;3.30;99.90
10443;DHT22;5269;51.146;16.986;2022-11-15T00:54:05;3.20;99.90
10443;DHT22;5269;51.146;16.986;2022-11-15T00:56:48;3.20;99.90
10443;DHT22;5269;51.146;16.986;2022-11-15T00:59:15;3.30;99.90
10443;DHT22;5269;51.146;16.986;2022-11-15T01:01:42;3.20;99.90
10443;DHT22;5269;51.146;16.986;2022-11-15T01:04:11;3.20;99.90
10443;DHT22;5269;51.146;16.986;2022-11-15T01:06:38;3.10;99.90
10443;DHT22;5269;51.146;16.986;2022-11-15T01:09:05;3.40;99.90
10443;DHT22;5269;51.146;16.986;2022-11-15T01:11:32;3.30;99.90
10443;DHT22;5269;51.146;16.986;2022-11-15T01:14:00;3.10;99.90
10443;DHT22;5269;51.146;16.986;2022-11-15T01:16:27;3.10;99.90
10443;DHT22;5269;51.146;16.986;2022-11-15T01:18:54;3.00;99.90
10443;DHT22;5269;51.146;16.986;2022-11-15T01:21:20;3.10;99.90
10443;DHT22;5269;51.146;16.986;2022-11-15T01:23:47;3.10;99.90
10443;DHT22;5269;51.146;16.986;2022-11-15T01:26:15;3.10;99.90
10443;DHT22;5269;51.146;16.986;2022-11-15T01:28:42;3.00;99.90
10443;DHT22;5269;51.146;16.986;2022-11-15T01:31:13;2.90;99.90
10443;DHT22;5269;51.146;16.986;2022-11-15T01:33:40;2.90;99.90
10443;DHT22;5269;51.146;16.986;2022-11-15T01:36:10;2.80;99.90
10443;DHT22;5269;51.146;16.986;2022-11-15T01:38:37;2.80;99.90
10443;DHT22;5269;51.146;16.986;2022-11-15T01:41:04;2.70;99.90
10443;DHT22;5269;51.146;16.986;2022-11-15T01:43:33;2.70;99.90
10443;DHT22;5269;51.146;16.986;2022-11-15T01:46:04;2.70;99.90
10443;DHT22;5269;51.146;16.986;2022-11-15T01:48:33;2.60;99.90
10443;DHT22;5269;51.146;16.986;2022-11-15T01:51:02;2.60;99.90
10443;DHT22;5269;51.146;16.986;2022-11-15T01:53:32;2.60;99.90
10443;DHT22;5269;51.146;16.986;2022-11-15T01:56:02;2.60;99.90
10443;DHT22;5269;51.146;16.986;2022-11-15T01:58:31;2.60;99.90
10443;DHT22;5269;51.146;16.986;2022-11-15T02:01:01;2.50;99.90
10443;DHT22;5269;51.146;16.986;2022-11-15T02:03:36;2.50;99.90
10443;DHT22;5269;51.146;16.986;2022-11-15T02:06:05;2.40;99.90
10443;DHT22;5269;51.146;16.986;2022-11-15T02:08:32;2.60;99.90
10443;DHT22;5269;51.146;16.986;2022-11-15T02:10:59;2.50;99.90
10443;DHT22;5269;51.146;16.986;2022-11-15T02:13:27;2.50;99.90
10443;DHT22;5269;51.146;16.986;2022-11-15T02:16:13;2.50;99.90
10443;DHT22;5269;51.146;16.986;2022-11-15T02:18:48;2.40;99.90
10443;DHT22;5269;51.146;16.986;2022-11-15T02:21:22;2.40;99.90
10443;DHT22;5269;51.146;16.986;2022-11-15T02:30:16;2.30;99.90
10443;DHT22;5269;51.146;16.986;2022-11-15T02:32:46;2.40;99.90
10443;DHT22;5269;51.146;16.986;2022-11-15T02:35:22;2.50;99.90
10443;DHT22;5269;51.146;16.986;2022-11-15T02:37:55;2.50;99.90
10443;DHT22;5269;51.146;16.986;2022-11-15T02:40:29;2.40;99.90
10443;DHT22;5269;51.146;16.986;2022-11-15T02:43:00;2.40;99.90
10443;DHT22;5269;51.146;16.986;2022-11-15T02:45:51;2.40;99.90
10443;DHT22;5269;51.146;16.986;2022-11-15T02:48:21;2.50;99.90
10443;DHT22;5269;51.146;16.986;2022-11-15T02:50:49;2.60;99.90
10443;DHT22;5269;51.146;16.986;2022-11-15T02:53:16;2.60;99.90
10443;DHT22;5269;51.146;16.986;2022-11-15T02:55:45;2.60;99.90
10443;DHT22;5269;51.146;16.986;2022-11-15T03:01:28;2.70;99.90
10443;DHT22;5269;51.146;16.986;2022-11-15T03:04:02;2.50;99.90
10443;DHT22;5269;51.146;16.986;2022-11-15T03:06:42;2.50;99.90
10443;DHT22;5269;51.146;16.986;2022-11-15T03:09:19;2.40;99.90
10443;DHT22;5269;51.146;16.986;2022-11-15T03:11:56;2.40;99.90
10443;DHT22;5269;51.146;16.986;2022-11-15T03:14:28;2.40;99.90
10443;DHT22;5269;51.146;16.986;2022-11-15T03:17:05;2.40;99.90
10443;DHT22;5269;51.146;16.986;2022-11-15T03:19:42;2.40;99.90
10443;DHT22;5269;51.146;16.986;2022-11-15T03:22:12;2.30;99.90
10443;DHT22;5269;51.146;16.986;2022-11-15T03:24:41;2.40;99.90
10443;DHT22;5269;51.146;16.986;2022-11-15T03:27:11;2.40;99.90
10443;DHT22;5269;51.146;16.986;2022-11-15T03:29:44;2.30;99.90
10443;DHT22;5269;51.146;16.986;2022-11-15T03:32:15;2.30;99.90
10443;DHT22;5269;51.146;16.986;2022-11-15T03:34:47;2.20;99.90
10443;DHT22;5269;51.146;16.986;2022-11-15T03:37:17;2.20;99.90
10443;DHT22;5269;51.146;16.986;2022-11-15T03:39:47;2.20;99.90
10443;DHT22;5269;51.146;16.986;2022-11-15T03:42:21;2.20;99.90
10443;DHT22;5269;51.146;16.986;2022-11-15T03:44:54;2.20;99.90
10443;DHT22;5269;51.146;16.986;2022-11-15T03:47:30;2.10;99.90
10443;DHT22;5269;51.146;16.986;2022-11-15T03:50:02;2.10;99.90
10443;DHT22;5269;51.146;16.986;2022-11-15T03:52:34;2.10;99.90
10443;DHT22;5269;51.146;16.986;2022-11-15T03:55:04;2.20;99.90
10443;DHT22;5269;51.146;16.986;2022-11-15T03:57:34;2.30;99.90
10443;DHT22;5269;51.146;16.986;2022-11-15T04:00:02;2.20;99.90
10443;DHT22;5269;51.146;16.986;2022-11-15T04:02:30;2.10;99.90
10443;DHT22;5269;51.146;16.986;2022-11-15T04:04:57;2.10;99.90
10443;DHT22;5269;51.146;16.986;2022-11-15T04:07:24;2.00;99.90
10443;DHT22;5269;51.146;16.986;2022-11-15T04:09:51;2.10;99.90
10443;DHT22;5269;51.146;16.986;2022-11-15T04:12:31;2.10;99.90
10443;DHT22;5269;51.146;16.986;2022-11-15T04:15:05;2.00;99.90
10443;DHT22;5269;51.146;16.986;2022-11-15T04:17:38;2.00;99.90
10443;DHT22;5269;51.146;16.986;2022-11-15T04:20:07;2.00;99.90
10443;DHT22;5269;51.146;16.986;2022-11-15T04:22:53;1.90;99.90
10443;DHT22;5269;51.146;16.986;2022-11-15T04:25:38;1.90;99.90
10443;DHT22;5269;51.146;16.986;2022-11-15T04:28:06;2.00;99.90
10443;DHT22;5269;51.146;16.986;2022-11-15T04:30:33;1.90;99.90
10443;DHT22;5269;51.146;16.986;2022-11-15T04:33:01;1.80;99.90
10443;DHT22;5269;51.146;16.986;2022-11-15T04:35:28;1.80;99.90
10443;DHT22;5269;51.146;16.986;2022-11-15T04:37:56;1.80;99.90
10443;DHT22;5269;51.146;16.986;2022-11-15T04:40:23;1.80;99.90
10443;DHT22;5269;51.146;16.986;2022-11-15T04:42:50;1.80;99.90
10443;DHT22;5269;51.146;16.986;2022-11-15T04:45:17;1.80;99.90
10443;DHT22;5269;51.146;16.986;2022-11-15T04:47:44;1.80;99.90
10443;DHT22;5269;51.146;16.986;2022-11-15T04:50:13;1.80;99.90
10443;DHT22;5269;51.146;16.986;2022-11-15T04:52:41;1.90;99.90
10443;DHT22;5269;51.146;16.986;2022-11-15T04:55:09;1.90;99.90
10443;DHT22;5269;51.146;16.986;2022-11-15T04:57:36;1.90;99.90
10443;DHT22;5269;51.146;16.986;2022-11-15T05:00:05;1.80;99.90
10443;DHT22;5269;51.146;16.986;2022-11-15T05:02:33;1.80;99.90
10443;DHT22;5269;51.146;16.986;2022-11-15T05:05:15;1.80;99.90
10443;DHT22;5269;51.146;16.986;2022-11-15T05:07:42;1.70;99.90
10443;DHT22;5269;51.146;16.986;2022-11-15T05:10:09;1.70;99.90
10443;DHT22;5269;51.146;16.986;2022-11-15T05:12:36;1.70;99.90
10443;DHT22;5269;51.146;16.986;2022-11-15T05:15:06;1.90;99.90
10443;DHT22;5269;51.146;16.986;2022-11-15T05:17:34;1.90;99.90
10443;DHT22;5269;51.146;16.986;2022-11-15T05:20:01;1.80;99.90
10443;DHT22;5269;51.146;16.986;2022-11-15T05:22:29;1.70;99.90
10443;DHT22;5269;51.146;16.986;2022-11-15T05:24:56;1.70;99.90
10443;DHT22;5269;51.146;16.986;2022-11-15T05:27:26;1.70;99.90
10443;DHT22;5269;51.146;16.986;2022-11-15T05:29:54;1.70;99.90
10443;DHT22;5269;51.146;16.986;2022-11-15T05:32:21;1.70;99.90
10443;DHT22;5269;51.146;16.986;2022-11-15T05:34:49;1.60;99.90
10443;DHT22;5269;51.146;16.986;2022-11-15T05:37:16;1.60;99.90
10443;DHT22;5269;51.146;16.986;2022-11-15T05:39:45;1.60;99.90
10443;DHT22;5269;51.146;16.986;2022-11-15T05:44:43;1.70;99.90
10443;DHT22;5269;51.146;16.986;2022-11-15T05:47:16;1.70;99.90
10443;DHT22;5269;51.146;16.986;2022-11-15T05:49:44;1.60;99.90
10443;DHT22;5269;51.146;16.986;2022-11-15T05:52:14;1.70;99.90
10443;DHT22;5269;51.146;16.986;2022-11-15T05:54:44;1.70;99.90
10443;DHT22;5269;51.146;16.986;2022-11-15T06:00:34;1.80;99.90
10443;DHT22;5269;51.146;16.986;2022-11-15T06:03:06;1.70;99.90
10443;DHT22;5269;51.146;16.986;2022-11-15T06:05:45;1.50;99.90
10443;DHT22;5269;51.146;16.986;2022-11-15T06:08:34;1.60;99.90
10443;DHT22;5269;51.146;16.986;2022-11-15T06:11:08;1.50;99.90
10443;DHT22;5269;51.146;16.986;2022-11-15T06:14:03;1.60;99.90
10443;DHT22;5269;51.146;16.986;2022-11-15T06:16:40;1.50;99.90
10443;DHT22;5269;51.146;16.986;2022-11-15T06:19:17;1.50;99.90
10443;DHT22;5269;51.146;16.986;2022-11-15T06:21:57;1.50;99.90
10443;DHT22;5269;51.146;16.986;2022-11-15T06:24:36;1.40;99.90
10443;DHT22;5269;51.146;16.986;2022-11-15T06:27:29;1.40;99.90
10443;DHT22;5269;51.146;16.986;2022-11-15T06:29:56;1.40;99.90
10443;DHT22;5269;51.146;16.986;2022-11-15T06:32:28;1.50;99.90
10443;DHT22;5269;51.146;16.986;2022-11-15T06:34:55;1.70;99.90
10443;DHT22;5269;51.146;16.986;2022-11-15T06:37:24;1.70;99.90
10443;DHT22;5269;51.146;16.986;2022-11-15T06:39:53;1.60;99.90
10443;DHT22;5269;51.146;16.986;2022-11-15T06:42:28;1.60;99.90
10443;DHT22;5269;51.146;16.986;2022-11-15T06:45:01;1.60;99.90
10443;DHT22;5269;51.146;16.986;2022-11-15T06:47:32;1.60;99.90
10443;DHT22;5269;51.146;16.986;2022-11-15T06:49:59;1.80;99.90
10443;DHT22;5269;51.146;16.986;2022-11-15T06:52:26;1.90;99.90
10443;DHT22;5269;51.146;16.986;2022-11-15T06:54:58;1.90;99.90
10443;DHT22;5269;51.146;16.986;2022-11-15T06:57:25;1.80;99.90
10443;DHT22;5269;51.146;16.986;2022-11-15T06:59:53;1.90;99.90
10443;DHT22;5269;51.146;16.986;2022-11-15T07:02:25;1.90;99.90
10443;DHT22;5269;51.146;16.986;2022-11-15T07:04:51;1.90;99.90
10443;DHT22;5269;51.146;16.986;2022-11-15T07:07:21;1.90;99.90
10443;DHT22;5269;51.146;16.986;2022-11-15T07:09:50;2.00;99.90
10443;DHT22;5269;51.146;16.986;2022-11-15T07:12:20;2.00;99.90
10443;DHT22;5269;51.146;16.986;2022-11-15T07:14:47;2.10;99.90
10443;DHT22;5269;51.146;16.986;2022-11-15T07:17:14;2.10;99.90
10443;DHT22;5269;51.146;16.986;2022-11-15T07:19:42;2.10;99.90
10443;DHT22;5269;51.146;16.986;2022-11-15T07:22:09;2.30;99.90
10443;DHT22;5269;51.146;16.986;2022-11-15T07:24:35;2.40;99.90
10443;DHT22;5269;51.146;16.986;2022-11-15T07:27:02;2.50;99.90
10443;DHT22;5269;51.146;16.986;2022-11-15T07:29:29;2.50;99.90
10443;DHT22;5269;51.146;16.986;2022-11-15T07:31:56;2.50;99.90
10443;DHT22;5269;51.146;16.986;2022-11-15T07:34:23;2.60;99.90
10443;DHT22;5269;51.146;16.986;2022-11-15T07:36:51;2.70;99.90
10443;DHT22;5269;51.146;16.986;2022-11-15T07:39:18;2.80;99.90
10443;DHT22;5269;51.146;16.986;2022-11-15T07:41:45;2.80;99.90
10443;DHT22;5269;51.146;16.986;2022-11-15T07:44:13;2.90;99.90
10443;DHT22;5269;51.146;16.986;2022-11-15T07:46:40;2.90;99.90
10443;DHT22;5269;51.146;16.986;2022-11-15T07:49:07;3.00;99.90
10443;DHT22;5269;51.146;16.986;2022-11-15T07:51:34;3.10;99.90
10443;DHT22;5269;51.146;16.986;2022-11-15T07:54:02;3.20;99.90
10443;DHT22;5269;51.146;16.986;2022-11-15T07:56:29;3.20;99.90
10443;DHT22;5269;51.146;16.986;2022-11-15T07:58:56;3.30;99.90
10443;DHT22;5269;51.146;16.986;2022-11-15T08:01:24;3.40;99.90
10443;DHT22;5269;51.146;16.986;2022-11-15T08:03:51;3.50;99.90
10443;DHT22;5269;51.146;16.986;2022-11-15T08:06:18;3.60;99.90
10443;DHT22;5269;51.146;16.986;2022-11-15T08:08:46;3.80;99.90
10443;DHT22;5269;51.146;16.986;2022-11-15T08:11:15;3.80;99.90
10443;DHT22;5269;51.146;16.986;2022-11-15T08:13:42;4.00;99.90
10443;DHT22;5269;51.146;16.986;2022-11-15T08:16:09;4.00;99.90
10443;DHT22;5269;51.146;16.986;2022-11-15T08:18:37;4.10;99.90
10443;DHT22;5269;51.146;16.986;2022-11-15T08:21:04;4.20;99.90
10443;DHT22;5269;51.146;16.986;2022-11-15T08:23:31;4.30;99.90
10443;DHT22;5269;51.146;16.986;2022-11-15T08:26:02;4.50;99.90
10443;DHT22;5269;51.146;16.986;2022-11-15T08:28:32;4.60;99.90
10443;DHT22;5269;51.146;16.986;2022-11-15T08:30:59;4.70;99.90
10443;DHT22;5269;51.146;16.986;2022-11-15T08:33:26;4.70;99.90
10443;DHT22;5269;51.146;16.986;2022-11-15T08:35:56;4.90;99.90
10443;DHT22;5269;51.146;16.986;2022-11-15T08:38:23;4.90;99.90
10443;DHT22;5269;51.146;16.986;2022-11-15T08:40:50;5.00;99.90
10443;DHT22;5269;51.146;16.986;2022-11-15T08:43:17;5.10;99.90
10443;DHT22;5269;51.146;16.986;2022-11-15T08:45:46;5.20;99.90
10443;DHT22;5269;51.146;16.986;2022-11-15T08:48:12;5.30;99.90
10443;DHT22;5269;51.146;16.986;2022-11-15T08:50:39;5.40;99.90
10443;DHT22;5269;51.146;16.986;2022-11-15T08:53:09;5.60;99.90
10443;DHT22;5269;51.146;16.986;2022-11-15T08:55:37;5.70;99.90
10443;DHT22;5269;51.146;16.986;2022-11-15T08:58:04;5.80;99.90
10443;DHT22;5269;51.146;16.986;2022-11-15T09:00:32;5.90;99.90
10443;DHT22;5269;51.146;16.986;2022-11-15T09:03:03;6.00;99.90
10443;DHT22;5269;51.146;16.986;2022-11-15T09:05:30;6.10;99.90
10443;DHT22;5269;51.146;16.986;2022-11-15T09:07:57;6.20;99.90
10443;DHT22;5269;51.146;16.986;2022-11-15T09:10:24;6.30;99.90
10443;DHT22;5269;51.146;16.986;2022-11-15T09:12:51;6.40;99.90
10443;DHT22;5269;51.146;16.986;2022-11-15T09:15:18;6.60;99.90
10443;DHT22;5269;51.146;16.986;2022-11-15T09:17:45;6.70;99.90
10443;DHT22;5269;51.146;16.986;2022-11-15T09:20:14;6.80;99.90
10443;DHT22;5269;51.146;16.986;2022-11-15T09:22:41;7.00;99.90
10443;DHT22;5269;51.146;16.986;2022-11-15T09:25:09;7.10;99.90
10443;DHT22;5269;51.146;16.986;2022-11-15T09:27:36;7.20;99.90
10443;DHT22;5269;51.146;16.986;2022-11-15T09:30:04;7.40;99.90
10443;DHT22;5269;51.146;16.986;2022-11-15T09:32:31;7.50;99.90
10443;DHT22;5269;51.146;16.986;2022-11-15T09:34:58;7.60;99.90
10443;DHT22;5269;51.146;16.986;2022-11-15T09:37:31;7.70;99.90
10443;DHT22;5269;51.146;16.986;2022-11-15T09:39:58;7.90;99.90
10443;DHT22;5269;51.146;16.986;2022-11-15T09:42:34;8.00;99.90
10443;DHT22;5269;51.146;16.986;2022-11-15T09:45:13;8.20;99.90
10443;DHT22;5269;51.146;16.986;2022-11-15T09:48:00;8.20;99.90
10443;DHT22;5269;51.146;16.986;2022-11-15T09:50:34;8.30;99.90
10443;DHT22;5269;51.146;16.986;2022-11-15T09:53:04;8.50;99.90
10443;DHT22;5269;51.146;16.986;2022-11-15T09:55:39;8.60;99.90
10443;DHT22;5269;51.146;16.986;2022-11-15T09:58:15;8.60;99.90
10443;DHT22;5269;51.146;16.986;2022-11-15T10:00:47;8.70;99.90
10443;DHT22;5269;51.146;16.986;2022-11-15T10:03:23;8.90;99.90
10443;DHT22;5269;51.146;16.986;2022-11-15T10:05:55;9.00;99.90
10443;DHT22;5269;51.146;16.986;2022-11-15T10:08:34;9.10;99.90
10443;DHT22;5269;51.146;16.986;2022-11-15T10:11:05;9.30;99.90
10443;DHT22;5269;51.146;16.986;2022-11-15T10:13:34;9.40;99.90
10443;DHT22;5269;51.146;16.986;2022-11-15T10:16:20;9.50;99.90
10443;DHT22;5269;51.146;16.986;2022-11-15T10:18:54;9.70;99.90
10443;DHT22;5269;51.146;16.986;2022-11-15T10:21:27;9.80;99.90
10443;DHT22;5269;51.146;16.986;2022-11-15T10:23:57;9.90;99.90
10443;DHT22;5269;51.146;16.986;2022-11-15T10:26:25;10.00;65.50
10443;DHT22;5269;51.146;16.986;2022-11-15T10:28:52;10.00;64.30
10443;DHT22;5269;51.146;16.986;2022-11-15T10:31:26;10.00;83.00
10443;DHT22;5269;51.146;16.986;2022-11-15T10:36:45;10.10;10.70
10443;DHT22;5269;51.146;16.986;2022-11-15T10:39:14;10.20;32.10
10443;DHT22;5269;51.146;16.986;2022-11-15T10:41:42;10.30;3.90
10443;DHT22;5269;51.146;16.986;2022-11-15T10:44:20;10.40;1.00
10443;DHT22;5269;51.146;16.986;2022-11-15T10:47:04;10.50;1.00
10443;DHT22;5269;51.146;16.986;2022-11-15T10:49:32;10.60;1.00
10443;DHT22;5269;51.146;16.986;2022-11-15T10:52:02;10.60;1.00
10443;DHT22;5269;51.146;16.986;2022-11-15T10:54:34;10.70;1.00
10443;DHT22;5269;51.146;16.986;2022-11-15T10:57:07;10.80;1.00
10443;DHT22;5269;51.146;16.986;2022-11-15T10:59:36;11.00;1.00
10443;DHT22;5269;51.146;16.986;2022-11-15T11:02:32;11.10;1.00
10443;DHT22;5269;51.146;16.986;2022-11-15T11:05:01;11.20;1.00
10443;DHT22;5269;51.146;16.986;2022-11-15T11:07:30;11.30;1.00
10443;DHT22;5269;51.146;16.986;2022-11-15T11:10:01;11.40;1.00
10443;DHT22;5269;51.146;16.986;2022-11-15T11:12:30;11.60;1.00
10443;DHT22;5269;51.146;16.986;2022-11-15T11:14:59;11.70;1.00
10443;DHT22;5269;51.146;16.986;2022-11-15T11:17:35;11.80;1.00
10443;DHT22;5269;51.146;16.986;2022-11-15T11:20:10;11.80;1.00
10443;DHT22;5269;51.146;16.986;2022-11-15T11:22:51;11.80;1.00
10443;DHT22;5269;51.146;16.986;2022-11-15T11:25:30;11.90;99.90
10443;DHT22;5269;51.146;16.986;2022-11-15T11:28:20;11.90;1.00
10443;DHT22;5269;51.146;16.986;2022-11-15T11:30:57;12.00;1.00
10443;DHT22;5269;51.146;16.986;2022-11-15T11:33:31;12.00;1.00
10443;DHT22;5269;51.146;16.986;2022-11-15T11:36:13;12.10;99.90
10443;DHT22;5269;51.146;16.986;2022-11-15T11:38:50;12.20;99.90
10443;DHT22;5269;51.146;16.986;2022-11-15T11:41:32;12.30;99.90
10443;DHT22;5269;51.146;16.986;2022-11-15T11:44:15;12.40;99.90
10443;DHT22;5269;51.146;16.986;2022-11-15T11:46:49;12.30;99.90
10443;DHT22;5269;51.146;16.986;2022-11-15T11:49:23;12.30;3.90
10443;DHT22;5269;51.146;16.986;2022-11-15T11:51:54;12.40;99.90
10443;DHT22;5269;51.146;16.986;2022-11-15T11:54:31;12.40;1.00
10443;DHT22;5269;51.146;16.986;2022-11-15T11:57:13;12.50;1.00
10443;DHT22;5269;51.146;16.986;2022-11-15T11:59:51;12.70;99.90
10443;DHT22;5269;51.146;16.986;2022-11-15T12:02:36;12.60;1.00
10443;DHT22;5269;51.146;16.986;2022-11-15T12:05:17;12.60;99.90
10443;DHT22;5269;51.146;16.986;2022-11-15T12:08:00;12.60;1.00
10443;DHT22;5269;51.146;16.986;2022-11-15T12:10:30;12.70;1.00
10443;DHT22;5269;51.146;16.986;2022-11-15T12:13:06;12.60;99.90
10443;DHT22;5269;51.146;16.986;2022-11-15T12:15:41;12.60;23.40
10443;DHT22;5269;51.146;16.986;2022-11-15T12:18:16;12.70;1.00
10443;DHT22;5269;51.146;16.986;2022-11-15T12:20:52;12.80;1.00
10443;DHT22;5269;51.146;16.986;2022-11-15T12:23:27;12.80;1.00
10443;DHT22;5269;51.146;16.986;2022-11-15T12:26:01;12.70;99.90
10443;DHT22;5269;51.146;16.986;2022-11-15T12:28:49;12.60;6.50
10443;DHT22;5269;51.146;16.986;2022-11-15T12:31:26;12.50;99.90
10443;DHT22;5269;51.146;16.986;2022-11-15T12:34:28;12.60;1.00
10443;DHT22;5269;51.146;16.986;2022-11-15T12:36:56;12.70;1.00
10443;DHT22;5269;51.146;16.986;2022-11-15T12:42:40;12.80;1.00
10443;DHT22;5269;51.146;16.986;2022-11-15T12:45:25;12.90;1.00
10443;DHT22;5269;51.146;16.986;2022-11-15T12:47:53;12.90;99.90
10443;DHT22;5269;51.146;16.986;2022-11-15T12:50:56;13.00;99.90
10443;DHT22;5269;51.146;16.986;2022-11-15T12:53:29;12.90;99.90
10443;DHT22;5269;51.146;16.986;2022-11-15T12:56:21;12.80;1.00
10443;DHT22;5269;51.146;16.986;2022-11-15T12:59:05;12.80;99.90
10443;DHT22;5269;51.146;16.986;2022-11-15T13:01:57;12.90;1.00
10443;DHT22;5269;51.146;16.986;2022-11-15T13:04:28;12.90;1.00
10443;DHT22;5269;51.146;16.986;2022-11-15T13:07:01;12.90;1.00
10443;DHT22;5269;51.146;16.986;2022-11-15T13:09:55;13.00;1.00
10443;DHT22;5269;51.146;16.986;2022-11-15T13:13:12;13.00;1.00
10443;DHT22;5269;51.146;16.986;2022-11-15T13:16:01;12.80;1.00
10443;DHT22;5269;51.146;16.986;2022-11-15T13:18:41;12.80;1.00
10443;DHT22;5269;51.146;16.986;2022-11-15T13:21:54;12.80;9.30
10443;DHT22;5269;51.146;16.986;2022-11-15T13:24:39;12.90;1.00
10443;DHT22;5269;51.146;16.986;2022-11-15T13:27:15;12.90;1.00
10443;DHT22;5269;51.146;16.986;2022-11-15T13:29:44;12.70;1.00
10443;DHT22;5269;51.146;16.986;2022-11-15T13:32:13;12.70;1.00
10443;DHT22;5269;51.146;16.986;2022-11-15T13:34:44;12.80;1.00
10443;DHT22;5269;51.146;16.986;2022-11-15T13:37:30;12.80;1.00
10443;DHT22;5269;51.146;16.986;2022-11-15T13:42:56;12.80;1.00
10443;DHT22;5269;51.146;16.986;2022-11-15T13:45:24;12.70;1.00
10443;DHT22;5269;51.146;16.986;2022-11-15T13:47:57;12.70;90.70
10443;DHT22;5269;51.146;16.986;2022-11-15T13:50:30;12.60;99.90
10443;DHT22;5269;51.146;16.986;2022-11-15T13:53:03;12.50;1.00
10443;DHT22;5269;51.146;16.986;2022-11-15T13:55:32;12.40;1.00
10443;DHT22;5269;51.146;16.986;2022-11-15T13:58:01;12.50;1.00
10443;DHT22;5269;51.146;16.986;2022-11-15T14:00:37;12.60;1.00
10443;DHT22;5269;51.146;16.986;2022-11-15T14:03:16;12.70;1.00
10443;DHT22;5269;51.146;16.986;2022-11-15T14:05:46;12.60;1.00
10443;DHT22;5269;51.146;16.986;2022-11-15T14:08:29;12.50;1.00
10443;DHT22;5269;51.146;16.986;2022-11-15T14:11:15;12.40;50.50
10443;DHT22;5269;51.146;16.986;2022-11-15T14:13:58;12.40;99.90
10443;DHT22;5269;51.146;16.986;2022-11-15T14:16:33;12.30;1.00
10443;DHT22;5269;51.146;16.986;2022-11-15T14:19:01;12.40;1.00
10443;DHT22;5269;51.146;16.986;2022-11-15T14:21:37;12.40;1.00
10443;DHT22;5269;51.146;16.986;2022-11-15T14:24:30;12.30;1.00
10443;DHT22;5269;51.146;16.986;2022-11-15T14:27:17;12.20;1.00
10443;DHT22;5269;51.146;16.986;2022-11-15T14:29:44;12.20;99.90
10443;DHT22;5269;51.146;16.986;2022-11-15T14:32:16;12.10;1.00
10443;DHT22;5269;51.146;16.986;2022-11-15T14:34:45;12.00;1.00
10443;DHT22;5269;51.146;16.986;2022-11-15T14:37:24;11.80;99.90
10443;DHT22;5269;51.146;16.986;2022-11-15T14:39:52;11.70;99.90
10443;DHT22;5269;51.146;16.986;2022-11-15T14:42:20;11.60;1.00
10443;DHT22;5269;51.146;16.986;2022-11-15T14:44:47;11.50;99.90
10443;DHT22;5269;51.146;16.986;2022-11-15T14:47:14;11.40;99.90
10443;DHT22;5269;51.146;16.986;2022-11-15T14:49:42;11.40;1.00
10443;DHT22;5269;51.146;16.986;2022-11-15T14:52:27;11.40;99.90
10443;DHT22;5269;51.146;16.986;2022-11-15T14:54:54;11.30;1.00
10443;DHT22;5269;51.146;16.986;2022-11-15T14:57:23;11.10;1.00
10443;DHT22;5269;51.146;16.986;2022-11-15T14:59:50;11.00;1.00
10443;DHT22;5269;51.146;16.986;2022-11-15T15:02:19;10.90;99.90
10443;DHT22;5269;51.146;16.986;2022-11-15T15:04:47;10.80;1.00
10443;DHT22;5269;51.146;16.986;2022-11-15T15:07:20;10.80;99.90
10443;DHT22;5269;51.146;16.986;2022-11-15T15:09:48;10.40;99.90
10443;DHT22;5269;51.146;16.986;2022-11-15T15:12:18;10.30;89.30
10443;DHT22;5269;51.146;16.986;2022-11-15T15:14:46;10.20;99.90
10443;DHT22;5269;51.146;16.986;2022-11-15T15:17:15;10.20;1.00
10443;DHT22;5269;51.146;16.986;2022-11-15T15:19:42;10.20;1.00
10443;DHT22;5269;51.146;16.986;2022-11-15T15:22:14;10.20;1.00
10443;DHT22;5269;51.146;16.986;2022-11-15T15:24:45;10.20;1.00
10443;DHT22;5269;51.146;16.986;2022-11-15T15:27:17;10.10;1.00
10443;DHT22;5269;51.146;16.986;2022-11-15T15:29:47;10.00;1.00
10443;DHT22;5269;51.146;16.986;2022-11-15T15:32:14;9.90;1.00
10443;DHT22;5269;51.146;16.986;2022-11-15T15:34:44;9.90;99.90
10443;DHT22;5269;51.146;16.986;2022-11-15T15:37:34;9.90;1.00
10443;DHT22;5269;51.146;16.986;2022-11-15T15:40:01;9.80;87.50
10443;DHT22;5269;51.146;16.986;2022-11-15T15:42:32;9.70;55.70
10443;DHT22;5269;51.146;16.986;2022-11-15T15:44:59;9.70;99.90
10443;DHT22;5269;51.146;16.986;2022-11-15T15:47:26;9.60;1.00
10443;DHT22;5269;51.146;16.986;2022-11-15T15:50:03;9.50;1.00
10443;DHT22;5269;51.146;16.986;2022-11-15T15:52:39;9.50;73.40
10443;DHT22;5269;51.146;16.986;2022-11-15T15:55:07;9.60;99.90
10443;DHT22;5269;51.146;16.986;2022-11-15T15:57:37;9.60;90.70
10443;DHT22;5269;51.146;16.986;2022-11-15T16:00:06;9.50;1.00
10443;DHT22;5269;51.146;16.986;2022-11-15T16:02:35;9.40;1.00
10443;DHT22;5269;51.146;16.986;2022-11-15T16:05:03;9.10;99.90
10443;DHT22;5269;51.146;16.986;2022-11-15T16:07:36;8.90;1.00
10443;DHT22;5269;51.146;16.986;2022-11-15T16:10:16;8.70;99.90
10443;DHT22;5269;51.146;16.986;2022-11-15T16:12:44;8.70;1.00
10443;DHT22;5269;51.146;16.986;2022-11-15T16:15:12;8.70;1.00
10443;DHT22;5269;51.146;16.986;2022-11-15T16:17:42;8.50;1.00
10443;DHT22;5269;51.146;16.986;2022-11-15T16:20:23;8.50;99.90
10443;DHT22;5269;51.146;16.986;2022-11-15T16:22:52;8.20;99.90
10443;DHT22;5269;51.146;16.986;2022-11-15T16:25:19;8.20;99.90
10443;DHT22;5269;51.146;16.986;2022-11-15T16:27:48;8.20;99.90
10443;DHT22;5269;51.146;16.986;2022-11-15T16:30:21;8.00;99.90
10443;DHT22;5269;51.146;16.986;2022-11-15T16:32:48;7.90;99.90
10443;DHT22;5269;51.146;16.986;2022-11-15T16:35:16;7.80;99.90
10443;DHT22;5269;51.146;16.986;2022-11-15T16:37:44;7.80;99.90